createdAt,value
2017-12-21T00:00:40.266Z,8.47
2017-12-21T00:01:20.811Z,8.48
2017-12-21T00:02:01.314Z,8.44
2017-12-21T00:02:41.862Z,8.43
2017-12-21T00:03:22.391Z,8.48
2017-12-21T00:04:02.917Z,8.44
2017-12-21T00:04:43.452Z,8.41
2017-12-21T00:05:23.983Z,8.47
2017-12-21T00:06:04.507Z,8.5
2017-12-21T00:06:45.029Z,8.44
2017-12-21T00:07:25.550Z,8.37
2017-12-21T00:08:06.078Z,8.45
2017-12-21T00:08:46.619Z,8.41
2017-12-21T00:09:27.148Z,8.41
2017-12-21T00:10:07.681Z,8.45
2017-12-21T00:10:48.217Z,8.45
2017-12-21T00:11:28.743Z,8.41
2017-12-21T00:12:09.280Z,8.43
2017-12-21T00:12:49.790Z,8.43
2017-12-21T00:13:30.330Z,8.4
2017-12-21T00:14:10.858Z,8.45
2017-12-21T00:14:51.379Z,8.41
2017-12-21T00:15:31.907Z,8.36
2017-12-21T00:16:12.435Z,8.45
2017-12-21T00:16:52.978Z,8.47
2017-12-21T00:17:33.504Z,8.45
2017-12-21T00:18:14.036Z,8.44
2017-12-21T00:18:54.557Z,8.41
2017-12-21T00:19:35.079Z,8.38
2017-12-21T00:20:15.607Z,8.43
2017-12-21T00:20:56.139Z,8.4
2017-12-21T00:21:36.692Z,8.44
2017-12-21T00:22:17.206Z,8.44
2017-12-21T00:22:57.735Z,8.38
2017-12-21T00:23:38.255Z,8.43
2017-12-21T00:24:18.786Z,8.4
2017-12-21T00:24:59.302Z,8.43
2017-12-21T00:25:39.832Z,8.44
2017-12-21T00:26:20.357Z,8.48
2017-12-21T00:27:00.876Z,8.44
2017-12-21T00:27:41.408Z,8.44
2017-12-21T00:28:21.920Z,8.48
2017-12-21T00:29:02.447Z,8.38
2017-12-21T00:29:42.980Z,8.43
2017-12-21T00:30:23.506Z,8.37
2017-12-21T00:31:04.028Z,8.38
2017-12-21T00:31:44.564Z,8.4
2017-12-21T00:32:25.092Z,8.33
2017-12-21T00:33:05.630Z,8.34
2017-12-21T00:33:46.143Z,8.29
2017-12-21T00:34:26.671Z,8.28
2017-12-21T00:35:07.201Z,8.25
2017-12-21T00:35:47.734Z,8.28
2017-12-21T00:36:28.272Z,8.28
2017-12-21T00:37:08.790Z,8.3
2017-12-21T00:37:49.314Z,8.37
2017-12-21T00:38:29.839Z,8.34
2017-12-21T00:39:10.373Z,8.44
2017-12-21T00:39:50.895Z,8.28
2017-12-21T00:40:31.429Z,8.29
2017-12-21T00:41:11.975Z,8.28
2017-12-21T00:41:52.519Z,8.34
2017-12-21T00:42:33.056Z,8.33
2017-12-21T00:43:13.575Z,8.3
2017-12-21T00:43:54.091Z,8.3
2017-12-21T00:44:34.624Z,8.3
2017-12-21T00:45:15.158Z,8.34
2017-12-21T00:45:55.673Z,8.34
2017-12-21T00:46:36.220Z,8.3
2017-12-21T00:47:16.742Z,8.38
2017-12-21T00:47:57.280Z,8.33
2017-12-21T00:48:37.817Z,8.29
2017-12-21T00:49:18.367Z,8.2
2017-12-21T00:49:58.909Z,8.28
2017-12-21T00:50:39.455Z,8.37
2017-12-21T00:51:19.987Z,8.29
2017-12-21T00:52:00.513Z,8.34
2017-12-21T00:52:41.056Z,8.23
2017-12-21T00:53:21.576Z,8.3
2017-12-21T00:54:02.113Z,8.29
2017-12-21T00:54:42.625Z,8.4
2017-12-21T00:55:23.159Z,8.3
2017-12-21T00:56:03.697Z,8.34
2017-12-21T00:56:44.235Z,8.28
2017-12-21T00:57:24.746Z,8.34
2017-12-21T00:58:05.283Z,8.34
2017-12-21T00:58:45.810Z,8.36
2017-12-21T00:59:26.338Z,8.34
2017-12-21T01:00:06.931Z,8.28
2017-12-21T01:00:47.450Z,8.34
2017-12-21T01:01:27.985Z,8.33
2017-12-21T01:02:08.500Z,8.33
2017-12-21T01:02:49.031Z,8.34
2017-12-21T01:03:29.548Z,8.29
2017-12-21T01:04:10.088Z,8.3
2017-12-21T01:04:50.620Z,8.22
2017-12-21T01:05:31.156Z,8.33
2017-12-21T01:06:11.680Z,8.28
2017-12-21T01:06:52.211Z,8.3
2017-12-21T01:07:32.719Z,8.23
2017-12-21T01:08:13.233Z,8.3
2017-12-21T01:08:53.759Z,8.2
2017-12-21T01:09:34.280Z,8.26
2017-12-21T01:10:14.791Z,8.23
2017-12-21T01:10:55.323Z,8.25
2017-12-21T01:11:35.858Z,8.28
2017-12-21T01:12:16.375Z,8.23
2017-12-21T01:12:56.912Z,8.28
2017-12-21T01:13:37.432Z,8.34
2017-12-21T01:14:18.037Z,8.29
2017-12-21T01:14:58.559Z,8.33
2017-12-21T01:15:39.089Z,8.23
2017-12-21T01:16:19.614Z,8.34
2017-12-21T01:17:00.146Z,8.28
2017-12-21T01:17:40.658Z,8.34
2017-12-21T01:18:21.192Z,8.34
2017-12-21T01:19:01.710Z,8.34
2017-12-21T01:19:42.246Z,8.3
2017-12-21T01:20:22.783Z,8.23
2017-12-21T01:21:03.313Z,8.25
2017-12-21T01:21:43.839Z,8.34
2017-12-21T01:22:24.369Z,8.3
2017-12-21T01:23:04.902Z,8.3
2017-12-21T01:23:45.429Z,8.3
2017-12-21T01:24:25.942Z,8.29
2017-12-21T01:25:06.476Z,8.28
2017-12-21T01:25:46.991Z,8.26
2017-12-21T01:26:27.517Z,8.23
2017-12-21T01:27:08.048Z,8.25
2017-12-21T01:27:48.586Z,8.23
2017-12-21T01:28:29.135Z,8.33
2017-12-21T01:29:09.656Z,8.23
2017-12-21T01:29:50.198Z,8.29
2017-12-21T01:30:30.727Z,8.28
2017-12-21T01:31:11.259Z,8.22
2017-12-21T01:31:51.798Z,8.28
2017-12-21T01:32:32.319Z,8.28
2017-12-21T01:33:12.850Z,8.36
2017-12-21T01:33:53.383Z,8.34
2017-12-21T01:34:33.897Z,8.28
2017-12-21T01:35:14.437Z,8.26
2017-12-21T01:35:54.979Z,8.26
2017-12-21T01:36:35.520Z,8.4
2017-12-21T01:37:16.054Z,8.36
2017-12-21T01:37:56.584Z,8.3
2017-12-21T01:38:37.099Z,8.28
2017-12-21T01:39:17.635Z,8.37
2017-12-21T01:39:58.163Z,8.33
2017-12-21T01:40:38.696Z,8.38
2017-12-21T01:41:19.224Z,8.28
2017-12-21T01:41:59.751Z,8.29
2017-12-21T01:42:40.303Z,8.29
2017-12-21T01:43:20.840Z,8.36
2017-12-21T01:44:01.375Z,8.28
2017-12-21T01:44:41.905Z,8.29
2017-12-21T01:45:22.430Z,8.28
2017-12-21T01:46:02.962Z,8.29
2017-12-21T01:46:43.496Z,8.33
2017-12-21T01:47:24.023Z,8.25
2017-12-21T01:48:04.554Z,8.3
2017-12-21T01:48:45.078Z,8.3
2017-12-21T01:49:25.610Z,8.28
2017-12-21T01:50:06.145Z,8.28
2017-12-21T01:50:46.660Z,8.33
2017-12-21T01:51:27.180Z,8.36
2017-12-21T01:52:07.716Z,8.33
2017-12-21T01:52:48.240Z,8.28
2017-12-21T01:53:28.765Z,8.33
2017-12-21T01:54:09.299Z,8.28
2017-12-21T01:54:49.839Z,8.34
2017-12-21T01:55:30.354Z,8.34
2017-12-21T01:56:10.910Z,8.3
2017-12-21T01:56:51.441Z,8.3
2017-12-21T01:57:31.974Z,8.3
2017-12-21T01:58:12.498Z,8.28
2017-12-21T01:58:53.017Z,8.33
2017-12-21T01:59:33.551Z,8.3
2017-12-21T02:00:14.091Z,8.3
2017-12-21T02:00:54.630Z,8.29
2017-12-21T02:01:35.137Z,8.22
2017-12-21T02:02:15.666Z,8.33
2017-12-21T02:02:56.201Z,8.34
2017-12-21T02:03:36.728Z,8.3
2017-12-21T02:04:17.254Z,8.33
2017-12-21T02:04:57.781Z,8.26
2017-12-21T02:05:38.318Z,8.36
2017-12-21T02:06:18.853Z,8.3
2017-12-21T02:06:59.381Z,8.3
2017-12-21T02:07:39.908Z,8.29
2017-12-21T02:08:20.426Z,8.33
2017-12-21T02:09:00.956Z,8.28
2017-12-21T02:09:41.483Z,8.26
2017-12-21T02:10:22.074Z,8.26
2017-12-21T02:11:02.595Z,8.26
2017-12-21T02:11:43.120Z,8.3
2017-12-21T02:12:23.644Z,8.23
2017-12-21T02:13:04.161Z,8.22
2017-12-21T02:13:44.693Z,8.22
2017-12-21T02:14:25.226Z,8.23
2017-12-21T02:15:05.754Z,8.26
2017-12-21T02:15:46.273Z,8.3
2017-12-21T02:16:26.814Z,8.3
2017-12-21T02:17:07.341Z,8.25
2017-12-21T02:17:47.872Z,8.25
2017-12-21T02:18:28.395Z,8.3
2017-12-21T02:19:08.918Z,8.29
2017-12-21T02:19:49.453Z,8.29
2017-12-21T02:20:29.980Z,8.28
2017-12-21T02:21:10.510Z,8.29
2017-12-21T02:21:51.029Z,8.25
2017-12-21T02:22:31.558Z,8.28
2017-12-21T02:23:12.087Z,8.23
2017-12-21T02:23:52.631Z,8.29
2017-12-21T02:24:33.165Z,8.2
2017-12-21T02:25:13.703Z,8.26
2017-12-21T02:25:54.221Z,8.3
2017-12-21T02:26:34.759Z,8.3
2017-12-21T02:27:15.291Z,8.3
2017-12-21T02:27:55.821Z,8.29
2017-12-21T02:28:36.351Z,8.3
2017-12-21T02:29:16.867Z,8.3
2017-12-21T02:29:57.412Z,8.33
2017-12-21T02:30:37.940Z,8.26
2017-12-21T02:31:18.474Z,8.3
2017-12-21T02:31:59.003Z,8.33
2017-12-21T02:32:39.573Z,8.36
2017-12-21T02:33:20.108Z,8.37
2017-12-21T02:34:00.644Z,8.33
2017-12-21T02:34:41.143Z,8.29
2017-12-21T02:35:21.679Z,8.3
2017-12-21T02:36:02.224Z,8.25
2017-12-21T02:36:42.736Z,8.29
2017-12-21T02:37:23.266Z,8.22
2017-12-21T02:38:03.792Z,8.26
2017-12-21T02:38:44.329Z,8.28
2017-12-21T02:39:24.859Z,8.3
2017-12-21T02:40:05.381Z,8.29
2017-12-21T02:40:45.892Z,8.22
2017-12-21T02:41:26.424Z,8.25
2017-12-21T02:42:06.965Z,8.22
2017-12-21T02:42:47.479Z,8.28
2017-12-21T02:43:27.989Z,8.29
2017-12-21T02:44:08.592Z,8.3
2017-12-21T02:44:49.130Z,8.28
2017-12-21T02:45:29.660Z,8.29
2017-12-21T02:46:10.190Z,8.28
2017-12-21T02:46:50.716Z,8.28
2017-12-21T02:47:31.246Z,8.33
2017-12-21T02:48:11.769Z,8.3
2017-12-21T02:48:52.295Z,8.28
2017-12-21T02:49:32.813Z,8.25
2017-12-21T02:50:13.347Z,8.36
2017-12-21T02:50:53.886Z,8.3
2017-12-21T02:51:34.421Z,8.26
2017-12-21T02:52:14.947Z,8.26
2017-12-21T02:52:55.476Z,8.3
2017-12-21T02:53:36.014Z,8.22
2017-12-21T02:54:16.539Z,8.28
2017-12-21T02:54:57.064Z,8.23
2017-12-21T02:55:37.606Z,8.25
2017-12-21T02:56:18.162Z,8.28
2017-12-21T02:56:58.688Z,8.22
2017-12-21T02:57:39.222Z,8.28
2017-12-21T02:58:19.750Z,8.22
2017-12-21T02:59:00.282Z,8.29
2017-12-21T02:59:40.805Z,8.3
2017-12-21T03:00:21.323Z,8.34
2017-12-21T03:01:01.853Z,8.23
2017-12-21T03:01:42.388Z,8.3
2017-12-21T03:02:22.918Z,8.34
2017-12-21T03:03:03.445Z,8.29
2017-12-21T03:03:43.969Z,8.28
2017-12-21T03:04:24.495Z,8.25
2017-12-21T03:05:05.023Z,8.26
2017-12-21T03:05:45.553Z,8.36
2017-12-21T03:06:26.088Z,8.33
2017-12-21T03:07:06.616Z,8.3
2017-12-21T03:07:47.140Z,8.3
2017-12-21T03:08:27.716Z,8.28
2017-12-21T03:09:08.251Z,8.28
2017-12-21T03:09:48.771Z,8.36
2017-12-21T03:10:29.297Z,8.28
2017-12-21T03:11:09.811Z,8.3
2017-12-21T03:11:50.339Z,8.29
2017-12-21T03:12:30.852Z,8.29
2017-12-21T03:13:11.382Z,8.34
2017-12-21T03:13:51.912Z,8.3
2017-12-21T03:14:32.439Z,8.3
2017-12-21T03:15:12.969Z,8.34
2017-12-21T03:15:53.497Z,8.23
2017-12-21T03:16:34.014Z,8.34
2017-12-21T03:17:14.540Z,8.38
2017-12-21T03:17:55.076Z,8.28
2017-12-21T03:18:35.599Z,8.33
2017-12-21T03:19:16.128Z,8.23
2017-12-21T03:19:56.672Z,8.4
2017-12-21T03:20:37.191Z,8.34
2017-12-21T03:21:17.723Z,8.33
2017-12-21T03:21:58.254Z,8.38
2017-12-21T03:22:38.784Z,8.29
2017-12-21T03:23:19.314Z,8.29
2017-12-21T03:23:59.833Z,8.33
2017-12-21T03:24:40.352Z,8.28
2017-12-21T03:25:20.884Z,8.28
2017-12-21T03:26:01.463Z,8.34
2017-12-21T03:26:41.947Z,8.28
2017-12-21T03:27:22.491Z,8.3
2017-12-21T03:28:03.020Z,8.28
2017-12-21T03:28:43.539Z,8.3
2017-12-21T03:29:24.071Z,8.3
2017-12-21T03:30:04.608Z,8.28
2017-12-21T03:30:45.140Z,8.34
2017-12-21T03:31:25.668Z,8.3
2017-12-21T03:32:06.184Z,8.23
2017-12-21T03:32:46.714Z,8.36
2017-12-21T03:33:27.255Z,8.33
2017-12-21T03:34:07.760Z,8.25
2017-12-21T03:34:48.294Z,8.23
2017-12-21T03:35:28.821Z,8.28
2017-12-21T03:36:09.337Z,8.29
2017-12-21T03:36:49.867Z,8.3
2017-12-21T03:37:30.382Z,8.26
2017-12-21T03:38:10.924Z,8.22
2017-12-21T03:38:51.454Z,8.22
2017-12-21T03:39:31.984Z,8.3
2017-12-21T03:40:12.513Z,8.25
2017-12-21T03:40:53.035Z,8.22
2017-12-21T03:41:33.575Z,8.28
2017-12-21T03:42:14.108Z,8.22
2017-12-21T03:42:54.640Z,8.22
2017-12-21T03:43:35.171Z,8.3
2017-12-21T03:44:15.691Z,8.3
2017-12-21T03:44:56.231Z,8.22
2017-12-21T03:45:36.765Z,8.3
2017-12-21T03:46:17.301Z,8.18
2017-12-21T03:46:57.834Z,8.22
2017-12-21T03:47:38.362Z,8.2
2017-12-21T03:48:18.898Z,8.28
2017-12-21T03:48:59.431Z,8.26
2017-12-21T03:49:39.974Z,8.26
2017-12-21T03:50:20.513Z,8.28
2017-12-21T03:51:01.022Z,8.26
2017-12-21T03:51:41.554Z,8.26
2017-12-21T03:52:22.081Z,8.3
2017-12-21T03:53:02.612Z,8.29
2017-12-21T03:53:43.142Z,8.33
2017-12-21T03:54:23.713Z,8.3
2017-12-21T03:55:04.241Z,8.29
2017-12-21T03:55:44.771Z,8.36
2017-12-21T03:56:25.298Z,8.34
2017-12-21T03:57:05.842Z,8.36
2017-12-21T03:57:46.375Z,8.36
2017-12-21T03:58:26.901Z,8.34
2017-12-21T03:59:07.431Z,8.34
2017-12-21T03:59:47.960Z,8.26
2017-12-21T04:00:28.487Z,8.34
2017-12-21T04:01:09.026Z,8.28
2017-12-21T04:01:49.568Z,8.33
2017-12-21T04:02:30.088Z,8.28
2017-12-21T04:03:10.612Z,8.26
2017-12-21T04:03:51.142Z,8.33
2017-12-21T04:04:31.697Z,8.28
2017-12-21T04:05:12.224Z,8.22
2017-12-21T04:05:52.758Z,8.25
2017-12-21T04:06:33.280Z,8.25
2017-12-21T04:07:13.807Z,8.28
2017-12-21T04:07:54.329Z,8.29
2017-12-21T04:08:34.863Z,8.36
2017-12-21T04:09:15.388Z,8.29
2017-12-21T04:09:55.985Z,8.36
2017-12-21T04:10:36.524Z,8.28
2017-12-21T04:11:17.059Z,8.3
2017-12-21T04:11:57.582Z,8.34
2017-12-21T04:12:38.104Z,8.28
2017-12-21T04:13:18.636Z,8.25
2017-12-21T04:13:59.167Z,8.25
2017-12-21T04:14:39.695Z,8.28
2017-12-21T04:15:20.223Z,8.2
2017-12-21T04:16:00.753Z,8.26
2017-12-21T04:16:41.292Z,8.22
2017-12-21T04:17:21.828Z,8.23
2017-12-21T04:18:02.357Z,8.26
2017-12-21T04:18:42.881Z,8.22
2017-12-21T04:19:23.414Z,8.26
2017-12-21T04:20:03.945Z,8.23
2017-12-21T04:20:44.480Z,8.22
2017-12-21T04:21:25.018Z,8.23
2017-12-21T04:22:05.567Z,8.25
2017-12-21T04:22:46.135Z,8.25
2017-12-21T04:23:26.670Z,8.2
2017-12-21T04:24:07.198Z,8.25
2017-12-21T04:24:47.728Z,8.26
2017-12-21T04:25:28.262Z,8.22
2017-12-21T04:26:08.794Z,8.2
2017-12-21T04:26:49.307Z,8.22
2017-12-21T04:27:29.840Z,8.18
2017-12-21T04:28:10.358Z,8.18
2017-12-21T04:28:50.889Z,8.18
2017-12-21T04:29:31.428Z,8.29
2017-12-21T04:30:11.962Z,8.11
2017-12-21T04:30:52.485Z,8.12
2017-12-21T04:31:33.013Z,8.23
2017-12-21T04:32:13.544Z,8.16
2017-12-21T04:32:54.080Z,8.12
2017-12-21T04:33:34.605Z,8.16
2017-12-21T04:34:15.125Z,8.19
2017-12-21T04:34:55.666Z,8.2
2017-12-21T04:35:36.195Z,8.11
2017-12-21T04:36:16.720Z,8.2
2017-12-21T04:36:57.242Z,8.18
2017-12-21T04:37:37.769Z,8.15
2017-12-21T04:38:18.306Z,8.18
2017-12-21T04:38:58.845Z,8.2
2017-12-21T04:39:39.372Z,8.11
2017-12-21T04:40:19.897Z,8.16
2017-12-21T04:41:00.437Z,8.16
2017-12-21T04:41:40.970Z,8.11
2017-12-21T04:42:21.503Z,8.28
2017-12-21T04:43:02.040Z,8.12
2017-12-21T04:43:42.568Z,8.1
2017-12-21T04:44:23.119Z,8.26
2017-12-21T04:45:03.633Z,8.22
2017-12-21T04:45:44.163Z,8.11
2017-12-21T04:46:24.685Z,8.19
2017-12-21T04:47:05.218Z,8.2
2017-12-21T04:47:45.742Z,8.2
2017-12-21T04:48:26.264Z,8.2
2017-12-21T04:49:06.800Z,8.22
2017-12-21T04:49:47.336Z,8.23
2017-12-21T04:50:27.852Z,8.18
2017-12-21T04:51:08.394Z,8.19
2017-12-21T04:51:48.946Z,8.11
2017-12-21T04:52:29.472Z,8.2
2017-12-21T04:53:10.002Z,8.23
2017-12-21T04:53:50.518Z,8.12
2017-12-21T04:54:31.046Z,8.1
2017-12-21T04:55:11.574Z,8.25
2017-12-21T04:55:52.149Z,8.16
2017-12-21T04:56:32.683Z,8.18
2017-12-21T04:57:13.194Z,8.12
2017-12-21T04:57:53.735Z,8.12
2017-12-21T04:58:34.256Z,8.12
2017-12-21T04:59:14.796Z,8.07
2017-12-21T04:59:55.336Z,8.11
2017-12-21T05:00:35.867Z,8.11
2017-12-21T05:01:16.412Z,8.16
2017-12-21T05:01:56.947Z,8.18
2017-12-21T05:02:37.479Z,8.12
2017-12-21T05:03:17.990Z,8.16
2017-12-21T05:03:58.523Z,8.1
2017-12-21T05:04:39.063Z,8.07
2017-12-21T05:05:19.604Z,8.08
2017-12-21T05:06:00.130Z,8.04
2017-12-21T05:06:40.658Z,8.11
2017-12-21T05:07:21.188Z,8.11
2017-12-21T05:08:01.824Z,8.07
2017-12-21T05:08:42.391Z,8.07
2017-12-21T05:09:22.966Z,8.11
2017-12-21T05:10:03.501Z,8.07
2017-12-21T05:10:44.034Z,8.01
2017-12-21T05:11:24.570Z,8.08
2017-12-21T05:12:05.352Z,8.11
2017-12-21T05:12:45.876Z,8.04
2017-12-21T05:13:26.417Z,8.08
2017-12-21T05:14:06.944Z,8.11
2017-12-21T05:14:47.477Z,8.1
2017-12-21T05:15:27.999Z,8.08
2017-12-21T05:16:08.655Z,8.04
2017-12-21T05:16:49.184Z,8.12
2017-12-21T05:17:29.695Z,8.15
2017-12-21T05:18:10.245Z,8.04
2017-12-21T05:18:50.790Z,8.05
2017-12-21T05:19:31.328Z,8.11
2017-12-21T05:20:11.851Z,8.1
2017-12-21T05:20:52.443Z,8.07
2017-12-21T05:21:32.973Z,8.08
2017-12-21T05:22:13.515Z,8.15
2017-12-21T05:22:54.051Z,8.07
2017-12-21T05:23:34.586Z,8.08
2017-12-21T05:24:15.115Z,8.08
2017-12-21T05:24:55.645Z,8.16
2017-12-21T05:25:36.161Z,8.08
2017-12-21T05:26:16.707Z,8.12
2017-12-21T05:26:57.413Z,8.08
2017-12-21T05:27:38.030Z,8.15
2017-12-21T05:28:18.548Z,8.16
2017-12-21T05:28:59.160Z,8.04
2017-12-21T05:29:39.695Z,8.15
2017-12-21T05:30:20.676Z,8.01
2017-12-21T05:31:01.286Z,8.02
2017-12-21T05:31:41.818Z,8.08
2017-12-21T05:32:22.356Z,8.11
2017-12-21T05:33:02.979Z,8.05
2017-12-21T05:33:43.511Z,8.08
2017-12-21T05:34:24.039Z,8.01
2017-12-21T05:35:04.572Z,8.02
2017-12-21T05:35:45.128Z,8.01
2017-12-21T05:36:25.707Z,8.01
2017-12-21T05:37:06.252Z,8.05
2017-12-21T05:37:46.768Z,8.02
2017-12-21T05:38:27.344Z,8.07
2017-12-21T05:39:07.939Z,8.07
2017-12-21T05:39:48.611Z,8.12
2017-12-21T05:40:29.123Z,8.1
2017-12-21T05:41:09.666Z,8.08
2017-12-21T05:41:50.315Z,8.01
2017-12-21T05:42:30.836Z,8.04
2017-12-21T05:43:11.364Z,8.12
2017-12-21T05:43:51.906Z,8.02
2017-12-21T05:44:32.411Z,8.08
2017-12-21T05:45:12.954Z,8.04
2017-12-21T05:45:53.478Z,8.16
2017-12-21T05:46:34.002Z,8.15
2017-12-21T05:47:14.529Z,8.12
2017-12-21T05:47:55.050Z,8.12
2017-12-21T05:48:35.583Z,8.12
2017-12-21T05:49:16.110Z,8.01
2017-12-21T05:49:56.647Z,8.02
2017-12-21T05:50:37.167Z,8.05
2017-12-21T05:51:17.692Z,8.11
2017-12-21T05:51:58.218Z,8.1
2017-12-21T05:52:38.748Z,8.04
2017-12-21T05:53:19.282Z,8.15
2017-12-21T05:53:59.811Z,8.11
2017-12-21T05:54:40.335Z,8.12
2017-12-21T05:55:20.872Z,8.08
2017-12-21T05:56:01.405Z,8.04
2017-12-21T05:56:41.935Z,8.08
2017-12-21T05:57:22.475Z,8.12
2017-12-21T05:58:03.032Z,8.02
2017-12-21T05:58:43.553Z,8.05
2017-12-21T05:59:24.089Z,8.02
2017-12-21T06:00:04.617Z,8.11
2017-12-21T06:00:45.159Z,8.16
2017-12-21T06:01:25.675Z,8.07
2017-12-21T06:02:06.204Z,8.12
2017-12-21T06:02:46.729Z,8.04
2017-12-21T06:03:27.276Z,8.02
2017-12-21T06:04:07.798Z,8.1
2017-12-21T06:04:48.369Z,8.12
2017-12-21T06:05:28.916Z,8.12
2017-12-21T06:06:09.442Z,8.07
2017-12-21T06:06:49.973Z,8.04
2017-12-21T06:07:30.550Z,8.02
2017-12-21T06:08:11.313Z,8.16
2017-12-21T06:08:52.082Z,8.11
2017-12-21T06:09:32.623Z,8.07
2017-12-21T06:10:13.205Z,8.1
2017-12-21T06:10:53.800Z,8.08
2017-12-21T06:11:34.332Z,8.11
2017-12-21T06:12:14.847Z,8
2017-12-21T06:12:55.361Z,8.12
2017-12-21T06:13:35.867Z,8.12
2017-12-21T06:14:16.443Z,8.02
2017-12-21T06:14:56.956Z,8.02
2017-12-21T06:15:37.472Z,8.07
2017-12-21T06:16:17.994Z,8.16
2017-12-21T06:16:58.508Z,8.12
2017-12-21T06:17:39.022Z,8.1
2017-12-21T06:18:19.545Z,8.15
2017-12-21T06:19:00.070Z,8.08
2017-12-21T06:19:40.598Z,8.15
2017-12-21T06:20:21.121Z,8.04
2017-12-21T06:21:01.653Z,8.1
2017-12-21T06:21:42.160Z,8.11
2017-12-21T06:22:22.743Z,8.04
2017-12-21T06:23:03.315Z,8
2017-12-21T06:23:43.847Z,8.07
2017-12-21T06:24:24.369Z,8.16
2017-12-21T06:25:04.929Z,8.07
2017-12-21T06:25:45.451Z,8.12
2017-12-21T06:26:25.976Z,8.05
2017-12-21T06:27:06.484Z,8.08
2017-12-21T06:27:47.017Z,8.04
2017-12-21T06:28:27.550Z,8.18
2017-12-21T06:29:08.087Z,8.02
2017-12-21T06:29:48.613Z,8.01
2017-12-21T06:30:29.154Z,8.02
2017-12-21T06:31:09.670Z,8.05
2017-12-21T06:31:50.207Z,8.01
2017-12-21T06:32:30.750Z,8.1
2017-12-21T06:33:11.273Z,8.12
2017-12-21T06:33:51.805Z,8.07
2017-12-21T06:34:32.320Z,8.15
2017-12-21T06:35:12.853Z,8.12
2017-12-21T06:35:53.375Z,8.1
2017-12-21T06:36:33.906Z,8.07
2017-12-21T06:37:14.445Z,8.07
2017-12-21T06:37:54.971Z,8.02
2017-12-21T06:38:35.508Z,8.08
2017-12-21T06:39:16.006Z,8.02
2017-12-21T06:39:56.534Z,8.04
2017-12-21T06:40:37.049Z,8.07
2017-12-21T06:41:17.582Z,8.04
2017-12-21T06:41:58.143Z,8.1
2017-12-21T06:42:38.711Z,8.05
2017-12-21T06:43:19.224Z,8.07
2017-12-21T06:43:59.758Z,8.04
2017-12-21T06:44:40.274Z,8.04
2017-12-21T06:45:20.807Z,7.98
2017-12-21T06:46:01.333Z,8.07
2017-12-21T06:46:41.865Z,8.04
2017-12-21T06:47:22.393Z,7.95
2017-12-21T06:48:02.924Z,8.04
2017-12-21T06:48:43.454Z,8.04
2017-12-21T06:49:23.989Z,7.98
2017-12-21T06:50:04.527Z,8.05
2017-12-21T06:50:45.035Z,8.02
2017-12-21T06:51:25.666Z,8.07
2017-12-21T06:52:06.306Z,8.07
2017-12-21T06:52:46.811Z,8.07
2017-12-21T06:53:27.337Z,8.1
2017-12-21T06:54:07.866Z,8.02
2017-12-21T06:54:48.395Z,8.07
2017-12-21T06:55:28.927Z,8.04
2017-12-21T06:56:09.463Z,8.11
2017-12-21T06:56:49.981Z,8.05
2017-12-21T06:57:30.497Z,8.05
2017-12-21T06:58:11.040Z,8.1
2017-12-21T06:58:51.554Z,8.07
2017-12-21T06:59:32.064Z,8.08
2017-12-21T07:00:12.590Z,8.07
2017-12-21T07:00:53.121Z,8.02
2017-12-21T07:01:33.655Z,8.02
2017-12-21T07:02:14.184Z,8.04
2017-12-21T07:02:54.711Z,7.98
2017-12-21T07:03:35.231Z,7.98
2017-12-21T07:04:15.783Z,8.04
2017-12-21T07:04:56.300Z,7.93
2017-12-21T07:05:36.840Z,8.05
2017-12-21T07:06:17.354Z,7.93
2017-12-21T07:06:57.881Z,8.11
2017-12-21T07:07:38.398Z,8.11
2017-12-21T07:08:18.931Z,7.97
2017-12-21T07:08:59.443Z,8.02
2017-12-21T07:09:39.954Z,8
2017-12-21T07:10:20.480Z,7.95
2017-12-21T07:11:01.026Z,8.01
2017-12-21T07:11:41.556Z,8.07
2017-12-21T07:12:22.094Z,7.97
2017-12-21T07:13:02.615Z,8.02
2017-12-21T07:13:43.141Z,7.95
2017-12-21T07:14:23.673Z,7.98
2017-12-21T07:15:04.204Z,7.95
2017-12-21T07:15:44.730Z,7.97
2017-12-21T07:16:25.257Z,7.98
2017-12-21T07:17:05.780Z,8.02
2017-12-21T07:17:46.280Z,7.97
2017-12-21T07:18:26.824Z,7.95
2017-12-21T07:19:07.365Z,8.01
2017-12-21T07:19:47.906Z,7.93
2017-12-21T07:20:28.510Z,8.11
2017-12-21T07:21:09.038Z,8
2017-12-21T07:21:49.572Z,7.97
2017-12-21T07:22:30.077Z,7.98
2017-12-21T07:23:10.588Z,7.93
2017-12-21T07:23:51.104Z,7.97
2017-12-21T07:24:31.641Z,8.07
2017-12-21T07:25:12.168Z,8.07
2017-12-21T07:25:52.697Z,8.02
2017-12-21T07:26:33.259Z,7.9
2017-12-21T07:27:13.790Z,7.93
2017-12-21T07:27:54.314Z,7.95
2017-12-21T07:28:34.830Z,7.93
2017-12-21T07:29:15.358Z,7.95
2017-12-21T07:29:55.891Z,8.04
2017-12-21T07:30:36.419Z,7.93
2017-12-21T07:31:16.944Z,7.97
2017-12-21T07:31:57.446Z,7.89
2017-12-21T07:32:37.993Z,7.97
2017-12-21T07:33:18.511Z,8.01
2017-12-21T07:33:59.042Z,8.07
2017-12-21T07:34:39.569Z,8
2017-12-21T07:35:20.101Z,8.05
2017-12-21T07:36:00.660Z,8.02
2017-12-21T07:36:41.171Z,7.97
2017-12-21T07:37:21.728Z,7.97
2017-12-21T07:38:02.247Z,7.97
2017-12-21T07:38:42.779Z,8.01
2017-12-21T07:39:23.313Z,7.98
2017-12-21T07:40:03.848Z,7.98
2017-12-21T07:40:44.460Z,8
2017-12-21T07:41:24.996Z,8.01
2017-12-21T07:42:05.550Z,7.95
2017-12-21T07:42:46.071Z,7.97
2017-12-21T07:43:26.599Z,8.01
2017-12-21T07:44:07.104Z,8.01
2017-12-21T07:44:47.627Z,8
2017-12-21T07:45:28.170Z,7.98
2017-12-21T07:46:08.703Z,7.92
2017-12-21T07:46:49.240Z,8
2017-12-21T07:47:29.779Z,8.01
2017-12-21T07:48:10.295Z,7.95
2017-12-21T07:48:50.817Z,8.04
2017-12-21T07:49:31.354Z,7.93
2017-12-21T07:50:11.890Z,7.93
2017-12-21T07:50:52.416Z,8.02
2017-12-21T07:51:32.939Z,7.95
2017-12-21T07:52:13.467Z,8.08
2017-12-21T07:52:53.990Z,8.07
2017-12-21T07:53:34.510Z,8.02
2017-12-21T07:54:15.028Z,8.04
2017-12-21T07:54:55.556Z,8.07
2017-12-21T07:55:36.076Z,8.04
2017-12-21T07:56:16.608Z,8.04
2017-12-21T07:56:57.131Z,8.01
2017-12-21T07:57:37.665Z,8.04
2017-12-21T07:58:18.189Z,8.01
2017-12-21T07:58:58.720Z,7.97
2017-12-21T07:59:39.241Z,8.07
2017-12-21T08:00:19.785Z,7.98
2017-12-21T08:01:00.293Z,8.01
2017-12-21T08:01:40.828Z,7.95
2017-12-21T08:02:21.353Z,7.98
2017-12-21T08:03:01.874Z,8.04
2017-12-21T08:03:42.412Z,7.95
2017-12-21T08:04:22.945Z,7.95
2017-12-21T08:05:03.473Z,8.04
2017-12-21T08:05:43.975Z,8
2017-12-21T08:06:24.516Z,7.98
2017-12-21T08:07:05.046Z,7.95
2017-12-21T08:07:45.577Z,7.93
2017-12-21T08:08:26.108Z,7.98
2017-12-21T08:09:06.623Z,7.98
2017-12-21T08:09:47.145Z,8.02
2017-12-21T08:10:27.671Z,7.93
2017-12-21T08:11:08.201Z,8.04
2017-12-21T08:11:48.722Z,7.97
2017-12-21T08:12:29.250Z,7.98
2017-12-21T08:13:09.799Z,7.95
2017-12-21T08:13:50.326Z,7.98
2017-12-21T08:14:30.859Z,7.97
2017-12-21T08:15:11.372Z,7.93
2017-12-21T08:15:51.908Z,8.02
2017-12-21T08:16:32.437Z,8.07
2017-12-21T08:17:12.956Z,8.07
2017-12-21T08:17:53.469Z,8.05
2017-12-21T08:18:34.001Z,8
2017-12-21T08:19:14.539Z,8.07
2017-12-21T08:19:55.076Z,8.07
2017-12-21T08:20:35.607Z,7.97
2017-12-21T08:21:16.132Z,8.04
2017-12-21T08:21:56.664Z,8.11
2017-12-21T08:22:37.250Z,8.04
2017-12-21T08:23:17.733Z,8.08
2017-12-21T08:23:58.278Z,8.15
2017-12-21T08:24:38.788Z,8.12
2017-12-21T08:25:19.311Z,8.11
2017-12-21T08:25:59.835Z,8.12
2017-12-21T08:26:40.375Z,8.1
2017-12-21T08:27:20.904Z,8.12
2017-12-21T08:28:01.433Z,8.08
2017-12-21T08:28:41.964Z,8.08
2017-12-21T08:29:22.489Z,8.05
2017-12-21T08:30:03.017Z,8.1
2017-12-21T08:30:43.577Z,8.08
2017-12-21T08:31:24.104Z,8.12
2017-12-21T08:32:04.643Z,8.11
2017-12-21T08:32:45.162Z,8.08
2017-12-21T08:33:25.674Z,8.07
2017-12-21T08:34:06.190Z,8.11
2017-12-21T08:34:46.754Z,8.11
2017-12-21T08:35:27.279Z,8.11
2017-12-21T08:36:07.806Z,8.1
2017-12-21T08:36:48.337Z,8.08
2017-12-21T08:37:28.853Z,8.08
2017-12-21T08:38:09.381Z,8.11
2017-12-21T08:38:49.911Z,8.12
2017-12-21T08:39:30.438Z,8.12
2017-12-21T08:40:10.956Z,8.1
2017-12-21T08:40:51.484Z,8.18
2017-12-21T08:41:32.026Z,8
2017-12-21T08:42:12.564Z,8.1
2017-12-21T08:42:53.097Z,8.12
2017-12-21T08:43:33.614Z,8.1
2017-12-21T08:44:14.156Z,8.15
2017-12-21T08:44:54.685Z,8.18
2017-12-21T08:45:35.219Z,8.11
2017-12-21T08:46:15.750Z,8.08
2017-12-21T08:46:56.280Z,8.05
2017-12-21T08:47:36.789Z,8.05
2017-12-21T08:48:17.302Z,8.08
2017-12-21T08:48:57.833Z,8.11
2017-12-21T08:49:38.353Z,8.1
2017-12-21T08:50:18.891Z,8.08
2017-12-21T08:50:59.411Z,8.11
2017-12-21T08:51:39.937Z,8.11
2017-12-21T08:52:20.476Z,8.11
2017-12-21T08:53:00.993Z,8.12
2017-12-21T08:53:41.519Z,8.15
2017-12-21T08:54:22.054Z,8.1
2017-12-21T08:55:02.581Z,8.1
2017-12-21T08:55:43.109Z,8.11
2017-12-21T08:56:23.639Z,8.12
2017-12-21T08:57:04.191Z,8.16
2017-12-21T08:57:44.730Z,8.1
2017-12-21T08:58:25.344Z,8.12
2017-12-21T08:59:05.826Z,8.15
2017-12-21T08:59:46.352Z,8.08
2017-12-21T09:00:26.902Z,8.1
2017-12-21T09:01:07.431Z,8.11
2017-12-21T09:01:47.951Z,8.11
2017-12-21T09:02:28.482Z,8.11
2017-12-21T09:03:09.014Z,8.1